createdAt,value
2023-04-16T00:01:56.116Z,99873.53
2023-04-16T00:04:23.164Z,99872.44
2023-04-16T00:06:50.045Z,99879.69
2023-04-16T00:09:16.763Z,99863.78
2023-04-16T00:11:43.614Z,99871.34
2023-04-16T00:14:10.331Z,99873.84
2023-04-16T00:16:38.437Z,99877.22
2023-04-16T00:19:05.465Z,99873.13
2023-04-16T00:21:32.432Z,99881.91
2023-04-16T00:23:59.120Z,99868.25
2023-04-16T00:26:26.033Z,99872.00
2023-04-16T00:28:53.576Z,99872.69
2023-04-16T00:31:30.615Z,99866.38
2023-04-16T00:33:58.265Z,99878.63
2023-04-16T00:36:25.872Z,99871.41
2023-04-16T00:38:53.213Z,99866.94
2023-04-16T00:41:19.941Z,99883.13
2023-04-16T00:43:46.845Z,99874.50
2023-04-16T00:46:13.830Z,99884.81
2023-04-16T00:48:41.310Z,99882.16
2023-04-16T00:51:08.705Z,99881.91
2023-04-16T00:53:35.588Z,99875.75
2023-04-16T00:56:03.469Z,99889.31
2023-04-16T00:58:30.700Z,99895.34
2023-04-16T01:00:57.460Z,99887.59
2023-04-16T01:03:31.213Z,99889.41
2023-04-16T01:05:58.132Z,99884.53
2023-04-16T01:08:24.805Z,99876.97
2023-04-16T01:10:51.515Z,99891.34
2023-04-16T01:13:18.185Z,99887.59
2023-04-16T01:15:44.939Z,99893.47
2023-04-16T01:18:19.394Z,99892.63
2023-04-16T01:20:47.542Z,99896.00
2023-04-16T01:23:14.530Z,99896.97
2023-04-16T01:25:41.298Z,99889.84
2023-04-16T01:28:08.138Z,99893.91
2023-04-16T01:30:34.879Z,99898.09
2023-04-16T01:33:13.596Z,99896.00
2023-04-16T01:35:41.274Z,99906.34
2023-04-16T01:38:09.094Z,99896.00
2023-04-16T01:40:36.524Z,99904.50
2023-04-16T01:43:03.432Z,99902.97
2023-04-16T01:45:32.139Z,99905.88
2023-04-16T01:47:58.856Z,99906.47
2023-04-16T01:50:25.583Z,99896.00
2023-04-16T01:52:52.347Z,99900.47
2023-04-16T01:55:19.114Z,99901.28
2023-04-16T01:57:45.885Z,99902.97
2023-04-16T02:00:14.127Z,99906.59
2023-04-16T02:02:47.032Z,99908.16
2023-04-16T02:05:20.148Z,99898.91
2023-04-16T02:07:46.938Z,99900.06
2023-04-16T02:10:13.665Z,99911.06
2023-04-16T02:12:40.780Z,99906.59
2023-04-16T02:15:07.973Z,99903.44
2023-04-16T02:17:35.493Z,99909.34
2023-04-16T02:20:10.821Z,99912.66
2023-04-16T02:22:57.742Z,99911.72
2023-04-16T02:25:25.116Z,99912.66
2023-04-16T02:27:55.171Z,99916.38
2023-04-16T02:30:40.760Z,99912.22
2023-04-16T02:33:09.376Z,99913.66
2023-04-16T02:35:38.394Z,99918.56
2023-04-16T02:38:06.299Z,99917.28
2023-04-16T02:40:35.192Z,99912.44
2023-04-16T02:43:02.244Z,99915.47
2023-04-16T02:45:29.071Z,99926.66
2023-04-16T02:47:55.849Z,99925.81
2023-04-16T02:50:22.623Z,99924.16
2023-04-16T02:52:49.399Z,99917.75
2023-04-16T02:55:16.188Z,99920.50
2023-04-16T02:57:43.087Z,99929.31
2023-04-16T03:00:10.400Z,99931.97
2023-04-16T03:02:37.375Z,99935.00
2023-04-16T03:05:04.532Z,99938.09
2023-04-16T03:07:31.316Z,99932.22
2023-04-16T03:09:58.004Z,99936.34
2023-04-16T03:12:24.758Z,99940.72
2023-04-16T03:14:52.653Z,99938.06
2023-04-16T03:17:19.449Z,99942.63
2023-04-16T03:19:46.241Z,99941.91
2023-04-16T03:22:12.990Z,99928.91
2023-04-16T03:24:39.708Z,99952.59
2023-04-16T03:27:07.189Z,99942.03
2023-04-16T03:29:37.930Z,99948.59
2023-04-16T03:32:05.891Z,99956.72
2023-04-16T03:34:33.051Z,99954.84
2023-04-16T03:37:00.746Z,99950.41
2023-04-16T03:39:27.657Z,99945.94
2023-04-16T03:41:54.470Z,99950.25
2023-04-16T03:44:21.393Z,99952.44
2023-04-16T03:46:48.338Z,99957.94
2023-04-16T03:49:15.333Z,99956.06
2023-04-16T03:51:42.467Z,99959.56
2023-04-16T03:54:09.274Z,99959.44
2023-04-16T03:56:37.380Z,99951.97
2023-04-16T03:59:04.128Z,99960.13
2023-04-16T04:01:30.952Z,99958.47
2023-04-16T04:06:24.725Z,99954.72
2023-04-16T04:08:51.624Z,99960.59
2023-04-16T04:11:18.429Z,99964.22
2023-04-16T04:13:45.697Z,99968.31
2023-04-16T04:16:13.172Z,99970.00
2023-04-16T04:18:39.940Z,99969.00
2023-04-16T04:21:07.939Z,99977.84
2023-04-16T04:23:35.983Z,99976.78
2023-04-16T04:26:04.042Z,99984.25
2023-04-16T04:28:33.259Z,99976.28
2023-04-16T04:31:00.542Z,99984.72
2023-04-16T04:33:28.796Z,99987.38
2023-04-16T04:35:55.744Z,99984.59
2023-04-16T04:38:25.184Z,99988.63
2023-04-16T04:40:52.908Z,99996.09
2023-04-16T04:43:21.028Z,99984.97
2023-04-16T04:45:49.080Z,99995.59
2023-04-16T04:48:16.780Z,100003.34
2023-04-16T04:50:45.031Z,99998.16
2023-04-16T04:53:12.031Z,100006.66
2023-04-16T04:55:39.595Z,100001.72
2023-04-16T04:58:06.944Z,99995.78
2023-04-16T05:00:36.881Z,99994.59
2023-04-16T05:03:10.626Z,100007.84
2023-04-16T05:05:38.152Z,100012.78
2023-04-16T05:08:04.858Z,100013.88
2023-04-16T05:10:31.586Z,100014.34
2023-04-16T05:12:58.303Z,100016.72
2023-04-16T05:15:25.004Z,100015.88
2023-04-16T05:17:51.735Z,100020.09
2023-04-16T05:20:18.615Z,100018.41
2023-04-16T05:22:45.359Z,100020.31
2023-04-16T05:25:12.096Z,100029.59
2023-04-16T05:27:38.844Z,100030.31
2023-04-16T05:30:06.281Z,100029.47
2023-04-16T05:32:33.110Z,100033.94
2023-04-16T05:34:59.771Z,100038.97
2023-04-16T05:37:26.469Z,100044.66
2023-04-16T05:39:53.290Z,100047.78
2023-04-16T05:42:19.989Z,100033.69
2023-04-16T05:44:46.738Z,100033.41
2023-04-16T05:47:13.468Z,100042.47
2023-04-16T05:49:40.477Z,100050.50
2023-04-16T05:52:07.435Z,100047.56
2023-04-16T05:54:34.332Z,100046.94
2023-04-16T05:57:01.975Z,100056.47
2023-04-16T05:59:29.286Z,100058.28
2023-04-16T06:01:56.134Z,100071.28
2023-04-16T06:04:23.446Z,100069.59
2023-04-16T06:06:50.286Z,100067.69
2023-04-16T06:09:18.176Z,100067.91
2023-04-16T06:11:45.198Z,100074.78
2023-04-16T06:14:11.974Z,100061.44
2023-04-16T06:16:38.635Z,100068.16
2023-04-16T06:19:05.583Z,100068.78
2023-04-16T06:21:32.519Z,100070.69
2023-04-16T06:23:59.326Z,100074.78
2023-04-16T06:26:26.622Z,100071.28
2023-04-16T06:28:53.348Z,100075.88
2023-04-16T06:31:20.601Z,100073.09
2023-04-16T06:33:47.358Z,100071.28
2023-04-16T06:36:14.116Z,100088.03
2023-04-16T06:38:40.824Z,100084.91
2023-04-16T06:41:07.527Z,100078.03
2023-04-16T06:43:34.377Z,100088.50
2023-04-16T06:46:01.083Z,100084.19
2023-04-16T06:48:28.046Z,100095.78
2023-04-16T06:50:55.939Z,100082.88
2023-04-16T06:53:23.437Z,100083.00
2023-04-16T06:55:50.197Z,100082.63
2023-04-16T06:58:16.915Z,100090.19
2023-04-16T07:00:43.681Z,100090.31
2023-04-16T07:03:10.700Z,100093.56
2023-04-16T07:05:37.606Z,100090.06
2023-04-16T07:08:04.286Z,100099.34
2023-04-16T07:10:31.392Z,100093.31
2023-04-16T07:13:01.622Z,100096.22
2023-04-16T07:15:28.551Z,100100.09
2023-04-16T07:17:55.637Z,100099.56
2023-04-16T07:20:22.444Z,100103.47
2023-04-16T07:22:49.346Z,100103.31
2023-04-16T07:25:16.092Z,100104.09
2023-04-16T07:27:43.099Z,100114.09
2023-04-16T07:30:09.913Z,100115.91
2023-04-16T07:32:36.682Z,100111.06
2023-04-16T07:35:03.860Z,100118.19
2023-04-16T07:37:30.872Z,100117.38
2023-04-16T07:39:57.771Z,100124.97
2023-04-16T07:42:24.451Z,100133.28
2023-04-16T07:44:51.134Z,100122.00
2023-04-16T07:47:17.852Z,100129.56
2023-04-16T07:49:44.532Z,100130.88
2023-04-16T07:52:11.195Z,100123.63
2023-04-16T07:54:37.873Z,100128.69
2023-04-16T07:57:04.567Z,100124.09
2023-04-16T07:59:31.257Z,100125.78
2023-04-16T08:01:58.069Z,100133.03
2023-04-16T08:04:25.774Z,100136.41
2023-04-16T08:06:53.350Z,100134.97
2023-04-16T08:09:21.719Z,100137.28
2023-04-16T08:11:49.937Z,100138.84
2023-04-16T08:14:17.611Z,100144.84
2023-04-16T08:16:44.415Z,100149.19
2023-04-16T08:19:11.293Z,100144.72
2023-04-16T08:21:38.331Z,100147.38
2023-04-16T08:24:05.072Z,100159.94
2023-04-16T08:26:31.886Z,100155.34
2023-04-16T08:28:58.885Z,100161.63
2023-04-16T08:31:25.702Z,100158.00
2023-04-16T08:33:52.654Z,100160.75
2023-04-16T08:36:19.472Z,100165.97
2023-04-16T08:38:46.178Z,100162.59
2023-04-16T08:41:13.418Z,100162.47
2023-04-16T08:43:44.736Z,100171.06
2023-04-16T08:46:12.133Z,100164.28
2023-04-16T08:48:38.903Z,100175.38
2023-04-16T08:51:09.512Z,100167.78
2023-04-16T08:53:49.323Z,100170.06
2023-04-16T08:56:18.006Z,100171.63
2023-04-16T08:58:46.202Z,100174.28
2023-04-16T09:01:12.916Z,100178.84
2023-04-16T09:03:40.045Z,100177.63
2023-04-16T09:06:07.637Z,100178.03
2023-04-16T09:08:35.889Z,100187.91
2023-04-16T09:11:02.644Z,100188.84
2023-04-16T09:13:33.999Z,100189.47
2023-04-16T09:16:01.065Z,100185.13
2023-04-16T09:18:28.516Z,100189.22
2023-04-16T09:20:56.352Z,100181.25
2023-04-16T09:23:23.394Z,100193.44
2023-04-16T09:25:50.040Z,100195.09
2023-04-16T09:28:39.108Z,100201.91
2023-04-16T09:31:09.343Z,100196.59
2023-04-16T09:33:38.248Z,100202.38
2023-04-16T09:36:05.907Z,100199.94
2023-04-16T09:38:53.407Z,100205.41
2023-04-16T09:41:29.276Z,100208.53
2023-04-16T09:43:57.598Z,100203.84
2023-04-16T09:46:29.266Z,100200.81
2023-04-16T09:48:56.264Z,100209.63
2023-04-16T09:51:22.983Z,100202.38
2023-04-16T09:53:52.748Z,100207.69
2023-04-16T09:56:23.761Z,100204.63
2023-04-16T09:58:50.586Z,100216.34
2023-04-16T10:01:18.116Z,100215.25
2023-04-16T10:03:49.681Z,100214.41
2023-04-16T10:06:21.601Z,100213.06
2023-04-16T10:08:52.930Z,100219.25
2023-04-16T10:11:20.814Z,100221.75
2023-04-16T10:13:47.479Z,100214.53
2023-04-16T10:16:14.271Z,100224.31
2023-04-16T10:18:42.738Z,100229.72
2023-04-16T10:21:12.121Z,100226.47
2023-04-16T10:23:43.182Z,100230.59
2023-04-16T10:26:10.518Z,100230.94
2023-04-16T10:28:37.916Z,100232.38
2023-04-16T10:31:07.698Z,100232.16
2023-04-16T10:33:40.196Z,100233.72
2023-04-16T10:36:26.639Z,100241.94
2023-04-16T10:38:58.098Z,100238.78
2023-04-16T10:41:26.668Z,100240.09
2023-04-16T10:43:53.402Z,100239.25
2023-04-16T10:46:23.101Z,100235.41
2023-04-16T10:48:55.038Z,100245.56
2023-04-16T10:51:32.888Z,100241.19
2023-04-16T10:54:03.987Z,100233.97
2023-04-16T10:56:32.999Z,100237.69
2023-04-16T10:58:59.776Z,100239.75
2023-04-16T11:01:34.593Z,100228.78
2023-04-16T11:04:22.806Z,100235.41
2023-04-16T11:07:11.462Z,100238.66
2023-04-16T11:09:45.905Z,100246.00
2023-04-16T11:12:14.725Z,100245.56
2023-04-16T11:14:42.119Z,100240.34
2023-04-16T11:17:09.500Z,100238.06
2023-04-16T11:19:36.993Z,100242.28
2023-04-16T11:22:03.956Z,100243.22
2023-04-16T11:24:31.509Z,100238.06
2023-04-16T11:26:58.324Z,100242.91
2023-04-16T11:29:25.230Z,100241.44
2023-04-16T11:31:52.513Z,100243.97
2023-04-16T11:34:20.134Z,100244.78
2023-04-16T11:36:48.720Z,100244.09
2023-04-16T11:39:15.917Z,100240.72
2023-04-16T11:41:44.117Z,100250.00
2023-04-16T11:44:21.812Z,100252.91
2023-04-16T11:46:49.643Z,100255.41
2023-04-16T11:49:19.466Z,100256.88
2023-04-16T11:51:47.144Z,100256.03
2023-04-16T11:54:22.428Z,100250.09
2023-04-16T11:56:51.184Z,100252.03
2023-04-16T11:59:19.841Z,100247.56
2023-04-16T12:01:58.087Z,100254.69
2023-04-16T12:04:26.822Z,100251.91
2023-04-16T12:07:12.959Z,100255.19
2023-04-16T12:09:41.520Z,100253.38
2023-04-16T12:12:33.351Z,100256.28
2023-04-16T12:15:03.604Z,100260.09
2023-04-16T12:17:35.289Z,100261.69
2023-04-16T12:20:07.065Z,100267.00
2023-04-16T12:22:36.627Z,100265.03
2023-04-16T12:25:12.168Z,100268.78
2023-04-16T12:27:55.795Z,100265.66
2023-04-16T12:30:24.228Z,100262.53
2023-04-16T12:32:52.590Z,100267.34
2023-04-16T12:35:33.436Z,100262.84
2023-04-16T12:38:00.603Z,100266.59
2023-04-16T12:40:27.581Z,100261.41
2023-04-16T12:42:54.829Z,100261.28
2023-04-16T12:45:22.229Z,100266.72
2023-04-16T12:47:50.378Z,100262.38
2023-04-16T12:50:17.647Z,100269.00
2023-04-16T12:52:44.607Z,100265.75
2023-04-16T12:55:11.905Z,100258.63
2023-04-16T12:57:38.724Z,100272.47
2023-04-16T13:00:06.667Z,100272.47
2023-04-16T13:02:34.267Z,100268.88
2023-04-16T13:05:01.532Z,100263.56
2023-04-16T13:07:29.001Z,100263.22
2023-04-16T13:12:22.512Z,100263.47
2023-04-16T13:14:49.177Z,100272.28
2023-04-16T13:17:16.100Z,100266.75
2023-04-16T13:19:42.785Z,100270.81
2023-04-16T13:22:09.587Z,100276.13
2023-04-16T13:24:36.546Z,100272.38
2023-04-16T13:27:03.256Z,100271.69
2023-04-16T13:29:30.104Z,100271.44
2023-04-16T13:31:57.681Z,100270.00
2023-04-16T13:34:46.300Z,100271.44
2023-04-16T13:37:30.986Z,100270.97
2023-04-16T13:39:57.839Z,100273.94
2023-04-16T13:42:25.060Z,100272.84
2023-04-16T13:44:54.175Z,100268.53
2023-04-16T13:47:21.062Z,100270.09
2023-04-16T13:49:48.050Z,100273.72
2023-04-16T13:52:14.941Z,100282.38
2023-04-16T13:54:41.607Z,100269.25
2023-04-16T13:57:43.378Z,100271.91
2023-04-16T14:00:13.248Z,100270.09
2023-04-16T14:02:45.967Z,100272.47
2023-04-16T14:05:12.835Z,100272.75
2023-04-16T14:07:39.592Z,100277.47
2023-04-16T14:10:06.968Z,100284.00
2023-04-16T14:12:33.780Z,100275.03
2023-04-16T14:15:02.254Z,100280.25
2023-04-16T14:17:28.991Z,100281.34
2023-04-16T14:19:55.686Z,100274.22
2023-04-16T14:22:22.531Z,100287.47
2023-04-16T14:24:49.310Z,100283.47
2023-04-16T14:27:16.997Z,100288.31
2023-04-16T14:29:44.755Z,100280.50
2023-04-16T14:32:11.793Z,100284.63
2023-04-16T14:34:38.651Z,100274.81
2023-04-16T14:37:05.840Z,100283.41
2023-04-16T14:39:39.640Z,100282.91
2023-04-16T14:42:06.578Z,100275.66
2023-04-16T14:44:33.457Z,100281.53
2023-04-16T14:47:00.211Z,100275.13
2023-04-16T14:49:26.936Z,100280.25
2023-04-16T14:51:53.942Z,100288.47
2023-04-16T14:54:20.941Z,100282.53
2023-04-16T14:56:47.751Z,100282.91
2023-04-16T14:59:14.492Z,100282.06
2023-04-16T15:01:42.672Z,100286.84
2023-04-16T15:04:09.734Z,100285.28
2023-04-16T15:06:36.562Z,100280.97
2023-04-16T15:09:03.964Z,100287.13
2023-04-16T15:11:30.911Z,100295.56
2023-04-16T15:13:57.670Z,100290.28
2023-04-16T15:16:24.681Z,100290.88
2023-04-16T15:18:51.602Z,100292.56
2023-04-16T15:21:18.369Z,100294.75
2023-04-16T15:23:45.177Z,100290.41
2023-04-16T15:26:11.963Z,100293.78
2023-04-16T15:28:38.705Z,100288.84
2023-04-16T15:31:05.644Z,100286.91
2023-04-16T15:33:32.417Z,100295.81
2023-04-16T15:35:59.180Z,100290.03
2023-04-16T15:38:26.138Z,100297.16
2023-04-16T15:40:52.875Z,100297.84
2023-04-16T15:43:19.750Z,100300.97
2023-04-16T15:45:46.400Z,100304.16
2023-04-16T15:48:13.118Z,100297.63
2023-04-16T15:50:39.908Z,100302.69
2023-04-16T15:53:07.254Z,100304.97
2023-04-16T15:55:34.864Z,100304.97
2023-04-16T15:58:01.605Z,100306.53
2023-04-16T16:00:28.514Z,100311.38
2023-04-16T16:02:55.383Z,100306.53
2023-04-16T16:05:22.242Z,100305.34
2023-04-16T16:07:49.050Z,100304.97
2023-04-16T16:10:15.854Z,100321.41
2023-04-16T16:12:42.670Z,100312.72
2023-04-16T16:15:10.887Z,100317.19
2023-04-16T16:17:37.594Z,100324.91
2023-04-16T16:20:04.458Z,100318.16
2023-04-16T16:22:31.147Z,100324.81
2023-04-16T16:24:58.007Z,100325.28
2023-04-16T16:27:24.652Z,100327.56
2023-04-16T16:29:51.463Z,100324.06
2023-04-16T16:32:18.254Z,100330.22
2023-04-16T16:34:45.063Z,100328.06
2023-04-16T16:37:12.405Z,100333.72
2023-04-16T16:39:40.415Z,100331.19
2023-04-16T16:42:09.056Z,100329.28
2023-04-16T16:44:37.413Z,100327.47
2023-04-16T16:47:04.227Z,100333.00
2023-04-16T16:49:30.928Z,100333.25
2023-04-16T16:51:57.923Z,100329.03
2023-04-16T16:54:24.606Z,100334.44
2023-04-16T16:56:51.609Z,100333.59
2023-04-16T16:59:18.292Z,100339.53
2023-04-16T17:01:44.944Z,100334.69
2023-04-16T17:04:11.770Z,100337.34
2023-04-16T17:06:39.103Z,100328.91
2023-04-16T17:09:07.073Z,100341.22
2023-04-16T17:11:33.827Z,100340.16
2023-04-16T17:14:00.718Z,100342.81
2023-04-16T17:16:27.511Z,100342.03
2023-04-16T17:18:54.223Z,100342.41
2023-04-16T17:21:20.988Z,100337.09
2023-04-16T17:23:47.683Z,100345.78
2023-04-16T17:26:14.402Z,100345.19
2023-04-16T17:28:41.160Z,100344.97
2023-04-16T17:31:08.523Z,100342.16
2023-04-16T17:33:35.682Z,100352.66
2023-04-16T17:36:04.514Z,100345.06
2023-04-16T17:38:31.526Z,100352.31
2023-04-16T17:40:58.210Z,100357.38
2023-04-16T17:43:25.332Z,100349.66
2023-04-16T17:45:52.017Z,100358.72
2023-04-16T17:48:18.705Z,100357.84
2023-04-16T17:50:45.395Z,100360.38
2023-04-16T17:53:12.282Z,100359.66
2023-04-16T17:55:42.570Z,100365.22
2023-04-16T17:58:09.255Z,100369.81
2023-04-16T18:00:35.899Z,100370.41
2023-04-16T18:03:02.737Z,100371.13
2023-04-16T18:05:30.487Z,100374.50
2023-04-16T18:07:57.967Z,100383.22
2023-04-16T18:10:24.736Z,100383.56
2023-04-16T18:12:51.777Z,100380.69
2023-04-16T18:15:18.595Z,100382.25
2023-04-16T18:17:45.394Z,100380.06
2023-04-16T18:20:12.496Z,100382.25
2023-04-16T18:22:39.189Z,100381.25
2023-04-16T18:25:06.632Z,100387.31
2023-04-16T18:27:33.399Z,100385.88
2023-04-16T18:30:00.262Z,100394.78
2023-04-16T18:32:30.873Z,100392.03
2023-04-16T18:34:58.035Z,100400.94
2023-04-16T18:37:24.818Z,100398.53
2023-04-16T18:39:51.539Z,100392.75
2023-04-16T18:42:18.536Z,100397.31
2023-04-16T18:44:51.600Z,100406.84
2023-04-16T18:47:18.419Z,100400.25
2023-04-16T18:49:45.172Z,100405.91
2023-04-16T18:52:12.238Z,100402.75
2023-04-16T18:54:40.900Z,100411.56
2023-04-16T18:57:07.935Z,100417.84
2023-04-16T18:59:34.635Z,100417.97
2023-04-16T19:02:01.547Z,100413.38
2023-04-16T19:04:28.311Z,100416.88
2023-04-16T19:06:55.750Z,100418.59
2023-04-16T19:09:22.698Z,100409.63
2023-04-16T19:11:50.510Z,100427.38
2023-04-16T19:14:17.344Z,100416.28
2023-04-16T19:16:44.210Z,100424.34
2023-04-16T19:19:11.170Z,100422.44
2023-04-16T19:21:38.041Z,100421.00
2023-04-16T19:24:04.995Z,100430.28
2023-04-16T19:26:31.792Z,100430.41
2023-04-16T19:28:58.717Z,100427.75
2023-04-16T19:31:26.210Z,100430.66
2023-04-16T19:33:52.962Z,100432.09
2023-04-16T19:36:19.616Z,100433.31
2023-04-16T19:38:46.319Z,100434.75
2023-04-16T19:41:13.016Z,100434.50
2023-04-16T19:43:39.732Z,100431.72
2023-04-16T19:46:07.549Z,100433.41
2023-04-16T19:48:34.560Z,100438.50
2023-04-16T19:51:03.258Z,100436.56
2023-04-16T19:53:30.077Z,100432.69
2023-04-16T19:55:56.753Z,100434.63
2023-04-16T19:58:24.168Z,100435.59
2023-04-16T20:00:51.098Z,100435.72
2023-04-16T20:03:17.946Z,100437.03
2023-04-16T20:05:48.183Z,100440.41
2023-04-16T20:08:14.855Z,100441.16
2023-04-16T20:10:41.610Z,100441.41
2023-04-16T20:13:11.960Z,100448.13
2023-04-16T20:15:38.650Z,100438.75
2023-04-16T20:18:06.419Z,100443.69
2023-04-16T20:20:35.972Z,100448.13
2023-04-16T20:23:02.714Z,100441.16
2023-04-16T20:25:29.662Z,100444.78
2023-04-16T20:27:56.362Z,100443.56
2023-04-16T20:30:28.737Z,100446.34
2023-04-16T20:32:56.225Z,100445.47
2023-04-16T20:35:23.047Z,100439.94
2023-04-16T20:37:49.715Z,100437.91
2023-04-16T20:40:16.478Z,100435.84
2023-04-16T20:42:46.035Z,100436.81
2023-04-16T20:45:12.802Z,100442.81
2023-04-16T20:47:39.608Z,100434.84
2023-04-16T20:50:07.243Z,100427.88
2023-04-16T20:52:36.649Z,100435.00
2023-04-16T20:55:03.592Z,100434.84
2023-04-16T20:57:31.890Z,100438.25
2023-04-16T20:59:58.720Z,100433.56
2023-04-16T21:02:25.959Z,100424.84
2023-04-16T21:04:52.809Z,100428.25
2023-04-16T21:07:19.595Z,100430.91
2023-04-16T21:09:46.471Z,100436.22
2023-04-16T21:12:13.189Z,100437.50
2023-04-16T21:14:40.349Z,100436.81
2023-04-16T21:17:07.086Z,100428.59
2023-04-16T21:19:33.733Z,100431.97
2023-04-16T21:22:02.384Z,100431.25
2023-04-16T21:24:29.108Z,100432.81
2023-04-16T21:26:56.784Z,100437.03
2023-04-16T21:29:23.535Z,100440.78
2023-04-16T21:31:50.325Z,100434.50
2023-04-16T21:34:17.080Z,100430.28
2023-04-16T21:36:44.015Z,100435.22
2023-04-16T21:39:11.422Z,100433.41
2023-04-16T21:41:38.395Z,100433.41
2023-04-16T21:44:05.197Z,100428.94
2023-04-16T21:46:31.946Z,100429.06
2023-04-16T21:48:58.744Z,100428.09
2023-04-16T21:51:28.909Z,100425.69
2023-04-16T21:53:56.499Z,100430.28
2023-04-16T21:56:23.732Z,100426.78
2023-04-16T21:58:50.639Z,100430.16
2023-04-16T22:01:17.483Z,100431.84
2023-04-16T22:03:46.863Z,100439.34
2023-04-16T22:06:14.118Z,100441.97
2023-04-16T22:08:40.848Z,100438.59
2023-04-16T22:11:07.519Z,100439.47
2023-04-16T22:13:36.370Z,100434.28
2023-04-16T22:16:03.411Z,100430.63
2023-04-16T22:18:33.534Z,100430.88
2023-04-16T22:21:00.661Z,100435.25
2023-04-16T22:23:27.399Z,100438.50
2023-04-16T22:25:55.519Z,100445.63
2023-04-16T22:28:22.536Z,100434.28
2023-04-16T22:30:49.410Z,100441.66
2023-04-16T22:33:16.291Z,100430.28
2023-04-16T22:35:43.045Z,100437.16
2023-04-16T22:38:10.314Z,100432.59
2023-04-16T22:40:37.052Z,100440.78
2023-04-16T22:43:03.790Z,100431.97
2023-04-16T22:45:30.530Z,100432.69
2023-04-16T22:47:57.286Z,100434.28
2023-04-16T22:50:24.080Z,100431.63
2023-04-16T22:52:50.867Z,100424.63
2023-04-16T22:55:17.536Z,100435.09
2023-04-16T22:57:44.234Z,100434.28
2023-04-16T23:00:15.759Z,100425.09
2023-04-16T23:02:43.308Z,100430.88
2023-04-16T23:05:10.683Z,100429.22
2023-04-16T23:07:37.564Z,100431.03
2023-04-16T23:10:04.603Z,100421.97
2023-04-16T23:12:31.394Z,100416.53
2023-04-16T23:14:58.248Z,100421.97
2023-04-16T23:17:25.085Z,100423.41
2023-04-16T23:19:52.063Z,100420.75
2023-04-16T23:22:18.787Z,100424.00
2023-04-16T23:24:45.807Z,100424.72
2023-04-16T23:27:12.614Z,100428.13
2023-04-16T23:29:39.366Z,100431.72
2023-04-16T23:32:06.321Z,100429.06
2023-04-16T23:34:33.014Z,100425.09
2023-04-16T23:36:59.739Z,100422.06
2023-04-16T23:39:27.132Z,100430.03
2023-04-16T23:41:53.879Z,100423.16
2023-04-16T23:44:20.639Z,100420.75
2023-04-16T23:46:47.416Z,100422.94
2023-04-16T23:49:14.346Z,100425.81
2023-04-16T23:51:41.384Z,100426.88
2023-04-16T23:54:08.112Z,100419.91
2023-04-16T23:56:34.797Z,100414.84
2023-04-16T23:59:01.565Z,100411.34
